Time;durP1;ratioP1;P1;durP2;ratioP2;P2;SDS_P1;SDS_P2;PMS_P1;PMS_P2;Temp;Humidity;BMP_temperature;BMP_pressure;BME280_temperature;BME280_humidity;BME280_pressure;Samples;Min_cycle;Max_cycle;Signal;HPM_P1;HPM_P2
2022/11/18 00:00:35;;;;;;;;;;;;;;;7.77;100.00;96278.88;5119777;28;19974;-61
2022/11/18 00:03:02;;;;;;;;;;;;;;;7.76;100.00;96274.63;5119602;28;19924;-60
2022/11/18 00:05:28;;;;;;;;;;;;;;;7.79;100.00;96274.06;5119760;28;19991;-59
2022/11/18 00:07:54;;;;;;;;;;;;;;;7.75;100.00;96270.41;5123122;28;19991;-59
2022/11/18 00:10:20;;;;;;;;;;;;;;;7.71;100.00;96272.03;5123032;28;20018;-60
2022/11/18 00:15:43;;;;;;;;;;;;;;;7.61;100.00;96260.44;5078416;28;19955;-60
2022/11/18 00:18:10;;;;;;;;;;;;;;;7.64;100.00;96259.13;5112363;28;19934;-59
2022/11/18 00:20:38;;;;;;;;;;;;;;;7.53;100.00;96253.13;5122140;28;19935;-60
2022/11/18 00:23:04;;;;;;;;;;;;;;;7.56;100.00;96246.44;5115318;28;19973;-60
2022/11/18 00:25:30;;;;;;;;;;;;;;;7.70;100.00;96255.31;5118239;28;19978;-59
2022/11/18 00:27:58;;;;;;;;;;;;;;;7.78;100.00;96259.19;5119325;28;19962;-60
2022/11/18 00:30:24;;;;;;;;;;;;;;;7.69;100.00;96244.97;5119135;28;19928;-60
2022/11/18 00:32:51;;;;;;;;;;;;;;;7.57;100.00;96246.19;5122141;28;19934;-60
2022/11/18 00:35:17;;;;;;;;;;;;;;;7.57;100.00;96238.19;5122601;28;19931;-60
2022/11/18 00:37:43;;;;;;;;;;;;;;;7.63;100.00;96246.09;5120781;28;20050;-60
2022/11/18 00:40:10;;;;;;;;;;;;;;;7.57;100.00;96248.81;5119038;28;19934;-60
2022/11/18 00:42:52;;;;;;;;;;;;;;;7.66;100.00;96240.22;5119736;28;19979;-61
2022/11/18 00:45:20;;;;;;;;;;;;;;;7.56;100.00;96238.47;5122300;28;19988;-60
2022/11/18 00:47:46;;;;;;;;;;;;;;;7.58;100.00;96245.06;5120256;28;20602;-60
2022/11/18 00:50:13;;;;;;;;;;;;;;;7.60;100.00;96234.19;5118919;28;19971;-61
2022/11/18 00:52:39;;;;;;;;;;;;;;;7.70;100.00;96247.34;5118774;28;20070;-61
2022/11/18 00:55:06;;;;;;;;;;;;;;;7.75;100.00;96234.00;5115587;28;19979;-61
2022/11/18 00:57:32;;;;;;;;;;;;;;;7.71;100.00;96237.50;5121954;28;19928;-60
2022/11/18 00:59:58;;;;;;;;;;;;;;;7.57;100.00;96234.75;5118812;28;19983;-60
2022/11/18 01:02:26;;;;;;;;;;;;;;;7.52;100.00;96219.66;5118657;28;19992;-60
2022/11/18 01:04:53;;;;;;;;;;;;;;;7.51;100.00;96228.72;5122006;28;20023;-60
2022/11/18 01:07:19;;;;;;;;;;;;;;;7.53;100.00;96231.88;5122437;28;19955;-60
2022/11/18 01:09:45;;;;;;;;;;;;;;;7.57;100.00;96232.88;5120098;28;19970;-59
2022/11/18 01:14:56;;;;;;;;;;;;;;;7.57;100.00;96232.88;5118692;28;19928;-60
2022/11/18 01:17:22;;;;;;;;;;;;;;;7.70;100.00;96238.59;5118434;28;19924;-60
2022/11/18 01:19:50;;;;;;;;;;;;;;;7.38;100.00;96220.63;5120925;28;19991;-60
2022/11/18 01:22:16;;;;;;;;;;;;;;;7.48;100.00;96223.97;5119674;28;19955;-61
2022/11/18 01:24:42;;;;;;;;;;;;;;;7.60;100.00;96221.69;5111549;28;19979;-60
2022/11/18 01:27:09;;;;;;;;;;;;;;;7.54;100.00;96224.69;5121813;28;19987;-60
2022/11/18 01:29:36;;;;;;;;;;;;;;;7.58;100.00;96223.06;5121141;28;19928;-60
2022/11/18 01:32:02;;;;;;;;;;;;;;;7.48;100.00;96218.66;5118445;28;19923;-60
2022/11/18 01:34:28;;;;;;;;;;;;;;;7.40;100.00;96221.94;5118315;28;19928;-60
2022/11/18 01:36:57;;;;;;;;;;;;;;;7.30;100.00;96227.38;5121427;28;19963;-60
2022/11/18 01:39:23;;;;;;;;;;;;;;;7.27;100.00;96219.94;5121808;28;19924;-59
2022/11/18 01:41:50;;;;;;;;;;;;;;;7.27;100.00;96222.59;5100630;28;20034;-60
2022/11/18 01:44:35;;;;;;;;;;;;;;;7.48;100.00;96229.28;5118146;28;19924;-60
2022/11/18 01:47:01;;;;;;;;;;;;;;;7.25;100.00;96231.91;5118129;28;19991;-60
2022/11/18 01:49:29;;;;;;;;;;;;;;;7.27;100.00;96225.25;5117418;28;20193;-61
2022/11/18 01:51:57;;;;;;;;;;;;;;;7.27;100.00;96222.59;5109561;28;19964;-59
2022/11/18 01:54:25;;;;;;;;;;;;;;;7.27;100.00;96221.84;5109464;28;20020;-59
2022/11/18 01:56:53;;;;;;;;;;;;;;;7.23;100.00;96220.81;5121242;28;19983;-61
2022/11/18 01:59:22;;;;;;;;;;;;;;;7.23;100.00;96218.94;5103411;28;19977;-60
2022/11/18 02:01:48;;;;;;;;;;;;;;;7.22;100.00;96220.00;5118957;28;19979;-60
2022/11/18 02:04:15;;;;;;;;;;;;;;;7.16;100.00;96226.44;5118047;28;19983;-60
2022/11/18 02:06:42;;;;;;;;;;;;;;;7.20;100.00;96222.16;5119614;28;19964;-60
2022/11/18 02:09:10;;;;;;;;;;;;;;;7.20;100.00;96232.78;5121610;28;19942;-60
2022/11/18 02:11:53;;;;;;;;;;;;;;;7.24;100.00;96231.13;5120500;28;19934;-60
2022/11/18 02:14:20;;;;;;;;;;;;;;;7.22;100.00;96227.19;5117770;28;19944;-59
2022/11/18 02:16:53;;;;;;;;;;;;;;;7.25;100.00;96229.28;5120064;28;19959;-60
2022/11/18 02:19:32;;;;;;;;;;;;;;;7.27;100.00;96224.50;5121268;28;19966;-60
2022/11/18 02:22:03;;;;;;;;;;;;;;;7.30;100.00;96226.56;5117736;28;20483;-60
2022/11/18 02:24:40;;;;;;;;;;;;;;;7.29;100.00;96220.47;5117618;28;19960;-59
2022/11/18 02:27:36;;;;;;;;;;;;;;;7.25;100.00;96238.03;5109370;28;19987;-59
2022/11/18 02:30:07;;;;;;;;;;;;;;;7.23;100.00;96245.50;5082378;28;20024;-60
2022/11/18 02:32:35;;;;;;;;;;;;;;;7.13;100.00;96242.16;5108726;28;19934;-60
2022/11/18 02:35:05;;;;;;;;;;;;;;;7.24;100.00;96239.09;5121223;28;19983;-60
2022/11/18 02:37:36;;;;;;;;;;;;;;;7.28;100.00;96236.66;5120865;28;19924;-60
2022/11/18 02:40:05;;;;;;;;;;;;;;;7.24;100.00;96235.66;5117680;28;20014;-59
2022/11/18 02:42:32;;;;;;;;;;;;;;;7.31;100.00;96241.41;5099362;28;19924;-59
2022/11/18 02:45:02;;;;;;;;;;;;;;;7.39;100.00;96238.16;5121161;28;19980;-59
2022/11/18 02:47:31;;;;;;;;;;;;;;;7.29;100.00;96243.56;5121016;28;19951;-59
2022/11/18 02:50:00;;;;;;;;;;;;;;;7.34;100.00;96257.56;5119927;28;19981;-59
2022/11/18 02:52:27;;;;;;;;;;;;;;;7.45;100.00;96255.63;5121205;28;19955;-59
2022/11/18 02:54:55;;;;;;;;;;;;;;;7.43;100.00;96247.13;5116252;28;19920;-59
2022/11/18 02:57:23;;;;;;;;;;;;;;;7.42;100.00;96242.91;5124719;28;19999;-59
2022/11/18 02:59:50;;;;;;;;;;;;;;;7.42;100.00;96233.06;5122086;28;20059;-59
2022/11/18 03:02:17;;;;;;;;;;;;;;;7.46;100.00;96231.41;5121019;28;19934;-59
2022/11/18 03:04:46;;;;;;;;;;;;;;;7.54;100.00;96222.84;5122929;28;20043;-60
2022/11/18 03:07:14;;;;;;;;;;;;;;;7.50;100.00;96232.44;5124503;28;19991;-61
2022/11/18 03:09:42;;;;;;;;;;;;;;;7.73;100.00;96230.03;5123112;28;20011;-60
2022/11/18 03:12:12;;;;;;;;;;;;;;;7.75;100.00;96220.72;5120978;28;19952;-59
2022/11/18 03:14:43;;;;;;;;;;;;;;;7.78;100.00;96230.75;5122020;28;19963;-60
2022/11/18 03:17:13;;;;;;;;;;;;;;;7.76;100.00;96232.13;5124394;28;19987;-59
2022/11/18 03:19:45;;;;;;;;;;;;;;;7.71;100.00;96224.19;5123106;28;19979;-59
2022/11/18 03:22:17;;;;;;;;;;;;;;;7.67;100.00;96218.69;5120462;28;20464;-60
2022/11/18 03:24:47;;;;;;;;;;;;;;;7.61;100.00;96223.25;5113884;28;20015;-59
2022/11/18 03:27:16;;;;;;;;;;;;;;;7.70;100.00;96235.94;5123959;28;20010;-60
2022/11/18 03:29:44;;;;;;;;;;;;;;;7.77;100.00;96228.41;5125316;28;19978;-60
2022/11/18 03:32:14;;;;;;;;;;;;;;;7.90;100.00;96225.03;5130016;28;19924;-59
2022/11/18 03:34:43;;;;;;;;;;;;;;;7.82;100.00;96229.13;5122440;28;19988;-60
2022/11/18 03:37:12;;;;;;;;;;;;;;;7.73;100.00;96222.88;5120537;28;19920;-60
2022/11/18 03:39:42;;;;;;;;;;;;;;;7.72;100.00;96228.44;5121380;28;19924;-59
2022/11/18 03:42:12;;;;;;;;;;;;;;;7.72;100.00;96225.78;5123760;28;19955;-60
2022/11/18 03:44:41;;;;;;;;;;;;;;;7.68;100.00;96235.41;5122433;28;20031;-59
2022/11/18 03:47:10;;;;;;;;;;;;;;;7.43;100.00;96229.31;5120223;28;19951;-60
2022/11/18 03:49:40;;;;;;;;;;;;;;;7.26;100.00;96231.66;5120933;28;19924;-61
2022/11/18 03:52:10;;;;;;;;;;;;;;;7.27;100.00;96222.59;5122977;28;19924;-59
2022/11/18 03:54:39;;;;;;;;;;;;;;;7.27;100.00;96227.91;5112312;28;20017;-60
2022/11/18 03:57:10;;;;;;;;;;;;;;;7.36;100.00;96228.91;5123500;28;19967;-60
2022/11/18 03:59:39;;;;;;;;;;;;;;;7.42;100.00;96234.94;5122372;28;19936;-60
2022/11/18 04:02:08;;;;;;;;;;;;;;;7.38;100.00;96233.91;5119954;28;19995;-59
2022/11/18 04:04:35;;;;;;;;;;;;;;;7.57;100.00;96227.59;5120392;28;20007;-60
2022/11/18 04:07:03;;;;;;;;;;;;;;;7.70;100.00;96233.28;5123327;28;20004;-59
2022/11/18 04:09:31;;;;;;;;;;;;;;;7.54;100.00;96236.13;5123293;28;19970;-60
2022/11/18 04:12:02;;;;;;;;;;;;;;;7.50;100.00;96236.94;5119751;28;19964;-59
2022/11/18 04:14:31;;;;;;;;;;;;;;;7.77;100.00;96237.16;5119727;28;19958;-59
2022/11/18 04:16:57;;;;;;;;;;;;;;;7.83;100.00;96233.34;5119823;28;19920;-61
2022/11/18 04:19:23;;;;;;;;;;;;;;;7.77;100.00;96247.00;5119500;28;19924;-60
2022/11/18 04:21:50;;;;;;;;;;;;;;;7.72;100.00;96247.06;5122039;28;19975;-59
2022/11/18 04:24:16;;;;;;;;;;;;;;;7.67;100.00;96237.28;5112256;28;19999;-59
2022/11/18 04:26:43;;;;;;;;;;;;;;;7.67;100.00;96237.28;5121355;28;20591;-59
2022/11/18 04:29:09;;;;;;;;;;;;;;;7.73;100.00;96253.97;5122773;28;19923;-59
2022/11/18 04:31:37;;;;;;;;;;;;;;;7.81;100.00;96253.31;5104128;28;19924;-59
2022/11/18 04:34:03;;;;;;;;;;;;;;;7.83;100.00;96253.84;5119425;28;19980;-60
2022/11/18 04:36:29;;;;;;;;;;;;;;;7.70;100.00;96257.19;5119444;28;20015;-59
2022/11/18 04:38:56;;;;;;;;;;;;;;;7.73;100.00;96254.75;5119323;28;19964;-59
2022/11/18 04:41:54;;;;;;;;;;;;;;;7.80;100.00;96257.06;5118853;28;19979;-59
2022/11/18 04:44:11;;;;;;;;;;;;;;;7.68;100.00;96252.13;5118732;28;19924;-58
2022/11/18 04:46:40;;;;;;;;;;;;;;;7.73;100.00;96248.63;5119851;28;19928;-59
2022/11/18 04:49:06;;;;;;;;;;;;;;;7.47;100.00;96251.59;5128368;28;19950;-60
2022/11/18 04:51:33;;;;;;;;;;;;;;;7.50;100.00;96253.69;5126976;28;20007;-60
2022/11/18 04:53:59;;;;;;;;;;;;;;;7.54;100.00;96252.06;5114538;28;19970;-61
2022/11/18 04:56:25;;;;;;;;;;;;;;;7.63;100.00;96249.56;5120985;28;19995;-60
2022/11/18 04:58:52;;;;;;;;;;;;;;;7.61;100.00;96257.03;5123221;28;20593;-59
2022/11/18 05:01:18;;;;;;;;;;;;;;;7.69;100.00;96252.94;5128413;28;19970;-59
2022/11/18 05:03:46;;;;;;;;;;;;;;;7.73;100.00;96254.75;5120196;28;19924;-60
2022/11/18 05:06:12;;;;;;;;;;;;;;;7.85;100.00;96254.34;5118642;28;20018;-60
2022/11/18 05:08:39;;;;;;;;;;;;;;;7.94;100.00;96257.94;5119634;28;20075;-60
2022/11/18 05:13:45;;;;;;;;;;;;;;;7.86;100.00;96266.56;5118934;28;19950;-61
2022/11/18 05:16:12;;;;;;;;;;;;;;;7.89;100.00;96268.63;5118348;28;19924;-59
2022/11/18 05:18:38;;;;;;;;;;;;;;;8.13;100.00;96264.06;5119328;28;19925;-59
2022/11/18 05:21:06;;;;;;;;;;;;;;;8.08;100.00;96253.47;5121896;28;19994;-58
2022/11/18 05:23:33;;;;;;;;;;;;;;;8.07;100.00;96263.34;5112925;28;19924;-59
2022/11/18 05:26:02;;;;;;;;;;;;;;;8.04;100.00;96257.81;5095609;28;19931;-60
2022/11/18 05:28:28;;;;;;;;;;;;;;;8.00;100.00;96264.75;5121694;28;19979;-59
2022/11/18 05:30:55;;;;;;;;;;;;;;;7.89;100.00;96260.66;5118363;28;19924;-60
2022/11/18 05:33:21;;;;;;;;;;;;;;;7.73;100.00;96268.03;5118117;28;19946;-60
2022/11/18 05:35:47;;;;;;;;;;;;;;;7.76;100.00;96258.69;5120423;28;19934;-60
2022/11/18 05:38:15;;;;;;;;;;;;;;;7.77;100.00;96268.25;5121634;28;19987;-61
2022/11/18 05:40:42;;;;;;;;;;;;;;;7.67;100.00;96257.75;5120102;28;19970;-60
2022/11/18 05:43:10;;;;;;;;;;;;;;;7.89;100.00;96261.44;5117871;28;19928;-60
2022/11/18 05:45:37;;;;;;;;;;;;;;;7.84;100.00;96271.34;5118653;28;19920;-60
2022/11/18 05:48:05;;;;;;;;;;;;;;;7.94;100.00;96263.25;5103106;28;19920;-60
2022/11/18 05:50:32;;;;;;;;;;;;;;;7.91;100.00;96264.63;5120942;28;19934;-59
2022/11/18 05:52:59;;;;;;;;;;;;;;;7.92;100.00;96262.75;5113815;28;20054;-59
2022/11/18 05:55:29;;;;;;;;;;;;;;;7.91;100.00;96263.81;5116830;28;20019;-59
2022/11/18 05:57:55;;;;;;;;;;;;;;;7.84;100.00;96264.16;5118040;28;19984;-59
2022/11/18 06:00:22;;;;;;;;;;;;;;;7.80;100.00;96267.69;5117821;28;19924;-59
2022/11/18 06:02:49;;;;;;;;;;;;;;;7.97;100.00;96268.78;5120059;28;19979;-60
2022/11/18 06:05:17;;;;;;;;;;;;;;;7.60;100.00;96264.19;5121478;28;19924;-60
2022/11/18 06:07:45;;;;;;;;;;;;;;;7.63;100.00;96278.78;5119534;28;19991;-60
2022/11/18 06:10:15;;;;;;;;;;;;;;;8.11;100.00;96277.63;5099836;28;19947;-60
2022/11/18 06:12:45;;;;;;;;;;;;;;;8.12;100.00;96273.09;5119224;28;20011;-61
2022/11/18 06:15:13;;;;;;;;;;;;;;;8.07;100.00;96268.66;5121229;28;19967;-59
2022/11/18 06:17:43;;;;;;;;;;;;;;;8.09;100.00;96271.81;5120129;28;19995;-60
2022/11/18 06:20:10;;;;;;;;;;;;;;;8.03;100.00;96275.63;5117812;28;20014;-60
2022/11/18 06:22:36;;;;;;;;;;;;;;;7.69;100.00;96279.50;5117672;28;19935;-60
2022/11/18 06:25:03;;;;;;;;;;;;;;;7.80;100.00;96273.00;5117821;28;19963;-58
2022/11/18 06:27:29;;;;;;;;;;;;;;;7.46;100.00;96278.41;5125474;28;19928;-59
2022/11/18 06:29:57;;;;;;;;;;;;;;;7.99;100.00;96281.78;5121812;28;20023;-59
2022/11/18 06:32:23;;;;;;;;;;;;;;;7.99;100.00;96287.88;5121774;28;19979;-60
2022/11/18 06:34:50;;;;;;;;;;;;;;;8.00;100.00;96283.38;5124575;28;20056;-60
2022/11/18 06:37:17;;;;;;;;;;;;;;;7.65;100.00;96289.09;5107039;28;19923;-59
2022/11/18 06:39:43;;;;;;;;;;;;;;;7.50;100.00;96290.88;5123155;28;19991;-60
2022/11/18 06:42:10;;;;;;;;;;;;;;;7.75;100.00;96291.66;5121625;28;20367;-60
2022/11/18 06:44:35;;;;;;;;;;;;;;;8.11;100.00;96290.91;5121657;28;19931;-60
2022/11/18 06:47:04;;;;;;;;;;;;;;;8.15;100.00;96297.25;5106575;28;19923;-60
2022/11/18 06:49:30;;;;;;;;;;;;;;;8.11;100.00;96298.09;5124847;28;19965;-60
2022/11/18 06:51:57;;;;;;;;;;;;;;;7.95;100.00;96302.03;5112881;28;20089;-59
2022/11/18 06:54:23;;;;;;;;;;;;;;;7.94;100.00;96309.22;5112721;28;20517;-60
2022/11/18 06:56:49;;;;;;;;;;;;;;;7.87;100.00;96298.13;5102941;28;19982;-60
2022/11/18 06:59:22;;;;;;;;;;;;;;;7.75;100.00;96296.97;5121108;28;19979;-60
2022/11/18 07:01:48;;;;;;;;;;;;;;;7.78;100.00;96318.44;5123435;28;19924;-61
2022/11/18 07:04:16;;;;;;;;;;;;;;;8.19;100.00;96315.28;5124323;28;19962;-61
2022/11/18 07:06:42;;;;;;;;;;;;;;;8.20;100.00;96311.56;5122918;28;19985;-61
2022/11/18 07:09:09;;;;;;;;;;;;;;;8.26;100.00;96318.41;5121053;28;19967;-60
2022/11/18 07:11:37;;;;;;;;;;;;;;;8.16;100.00;96311.34;5121414;28;20027;-59
2022/11/18 07:14:03;;;;;;;;;;;;;;;8.13;100.00;96314.56;5124580;28;19930;-60
2022/11/18 07:16:29;;;;;;;;;;;;;;;8.18;100.00;96317.16;5124353;28;19928;-59
2022/11/18 07:18:56;;;;;;;;;;;;;;;8.50;100.00;96330.59;5120848;28;19924;-60
2022/11/18 07:21:24;;;;;;;;;;;;;;;8.44;100.00;96318.44;5120613;28;20408;-61
2022/11/18 07:23:51;;;;;;;;;;;;;;;8.43;100.00;96319.50;5116540;28;19930;-60
2022/11/18 07:26:17;;;;;;;;;;;;;;;8.36;100.00;96307.63;5120441;28;19988;-60
2022/11/18 07:28:44;;;;;;;;;;;;;;;8.31;100.00;96321.81;5122318;28;19931;-60
2022/11/18 07:31:11;;;;;;;;;;;;;;;8.27;100.00;96311.97;5123925;28;20019;-60
2022/11/18 07:33:39;;;;;;;;;;;;;;;8.21;100.00;96316.59;5123234;28;19958;-60
2022/11/18 07:36:07;;;;;;;;;;;;;;;8.14;100.00;96316.13;5120116;28;19925;-59
2022/11/18 07:38:35;;;;;;;;;;;;;;;8.28;100.00;96318.91;5128832;28;19995;-61
2022/11/18 07:41:05;;;;;;;;;;;;;;;8.27;100.00;96323.41;5120356;28;19927;-60
2022/11/18 07:43:32;;;;;;;;;;;;;;;8.24;100.00;96331.16;5120067;28;19985;-60
2022/11/18 07:45:58;;;;;;;;;;;;;;;8.27;100.00;96330.59;5111605;28;19927;-60
2022/11/18 07:48:24;;;;;;;;;;;;;;;8.27;100.00;96336.72;5111485;28;19955;-59
2022/11/18 07:50:51;;;;;;;;;;;;;;;8.28;100.00;96332.22;5111680;28;19924;-60
2022/11/18 07:53:17;;;;;;;;;;;;;;;8.35;100.00;96343.31;5111284;28;20007;-59
2022/11/18 07:55:45;;;;;;;;;;;;;;;8.36;100.00;96345.66;5120234;28;19920;-60
2022/11/18 07:58:11;;;;;;;;;;;;;;;8.49;100.00;96341.50;5120077;28;19924;-61
2022/11/18 08:00:37;;;;;;;;;;;;;;;8.39;100.00;96338.97;5120847;28;20023;-59
2022/11/18 08:03:05;;;;;;;;;;;;;;;8.41;100.00;96344.81;5123273;28;19920;-59
2022/11/18 08:05:31;;;;;;;;;;;;;;;8.29;100.00;96341.78;5123295;28;19931;-60
2022/11/18 08:07:57;;;;;;;;;;;;;;;8.31;100.00;96335.09;5119900;28;19991;-60
2022/11/18 08:10:24;;;;;;;;;;;;;;;8.36;100.00;96343.00;5119659;28;19980;-59
2022/11/18 08:12:52;;;;;;;;;;;;;;;8.39;100.00;96342.44;5122632;28;19928;-59
2022/11/18 08:15:18;;;;;;;;;;;;;;;8.49;100.00;96349.47;5123336;28;19970;-61
2022/11/18 08:17:44;;;;;;;;;;;;;;;8.47;100.00;96343.66;5121155;28;19990;-59
2022/11/18 08:20:11;;;;;;;;;;;;;;;8.63;100.00;96356.44;5119778;28;19958;-60
2022/11/18 08:22:37;;;;;;;;;;;;;;;8.76;100.00;96364.81;5119291;28;19991;-60
2022/11/18 08:25:04;;;;;;;;;;;;;;;8.62;100.00;96357.56;5115548;28;19975;-59
2022/11/18 08:27:31;;;;;;;;;;;;;;;8.48;100.00;96367.31;5122942;28;19991;-60
2022/11/18 08:29:58;;;;;;;;;;;;;;;8.48;100.00;96361.22;5111029;28;19991;-59
2022/11/18 08:32:25;;;;;;;;;;;;;;;8.54;100.00;96363.50;5111096;28;19924;-60
2022/11/18 08:34:51;;;;;;;;;;;;;;;8.33;100.00;96367.50;5110994;28;19931;-60
2022/11/18 08:37:18;;;;;;;;;;;;;;;8.48;100.00;96369.97;5110626;28;19923;-61
2022/11/18 08:39:44;;;;;;;;;;;;;;;8.56;100.00;96365.88;5110868;28;19984;-59
2022/11/18 08:42:11;;;;;;;;;;;;;;;8.63;100.00;96369.75;5110781;28;20007;-60
2022/11/18 08:44:37;;;;;;;;;;;;;;;8.57;100.00;96372.81;5110453;28;20760;-60
2022/11/18 08:47:05;;;;;;;;;;;;;;;8.46;100.00;96376.66;5109901;28;19975;-60
2022/11/18 08:49:31;;;;;;;;;;;;;;;8.50;100.00;96373.16;5110582;28;20019;-60
2022/11/18 08:51:57;;;;;;;;;;;;;;;8.66;100.00;96385.16;5119217;28;19920;-60
2022/11/18 08:54:23;;;;;;;;;;;;;;;8.65;100.00;96380.91;5110475;28;20093;-59
2022/11/18 08:56:50;;;;;;;;;;;;;;;8.62;100.00;96378.84;5121493;28;19984;-61
2022/11/18 08:59:17;;;;;;;;;;;;;;;8.72;100.00;96380.56;5122344;28;19923;-61
2022/11/18 09:01:43;;;;;;;;;;;;;;;8.51;100.00;96374.72;5120688;28;19924;-60
2022/11/18 09:04:11;;;;;;;;;;;;;;;8.48;100.00;96380.59;5118596;28;19972;-59
2022/11/18 09:06:39;;;;;;;;;;;;;;;8.54;100.00;96389.34;5119567;28;19925;-60
2022/11/18 09:09:05;;;;;;;;;;;;;;;8.50;100.00;96385.66;5122395;28;19941;-60
2022/11/18 09:11:31;;;;;;;;;;;;;;;8.66;100.00;96374.50;5122143;28;19981;-60
2022/11/18 09:13:58;;;;;;;;;;;;;;;8.79;100.00;96385.53;5118896;28;19923;-62
2022/11/18 09:16:26;;;;;;;;;;;;;;;8.76;100.00;96386.13;5100577;28;19931;-60
2022/11/18 09:18:52;;;;;;;;;;;;;;;8.90;100.00;96381.63;5121694;28;19963;-60
2022/11/18 09:21:20;;;;;;;;;;;;;;;8.82;100.00;96382.28;5122075;28;19919;-61
2022/11/18 09:23:46;;;;;;;;;;;;;;;8.75;100.00;96382.66;5111284;28;19930;-59
2022/11/18 09:26:14;;;;;;;;;;;;;;;8.83;100.00;96395.31;5118510;28;20011;-59
2022/11/18 09:28:40;;;;;;;;;;;;;;;8.37;100.00;96395.13;5119613;28;19959;-60
2022/11/18 09:31:07;;;;;;;;;;;;;;;8.44;100.00;96395.56;5122069;28;20012;-60
2022/11/18 09:33:34;;;;;;;;;;;;;;;8.50;100.00;96396.31;5121442;28;19920;-62
2022/11/18 09:36:00;;;;;;;;;;;;;;;8.53;100.00;96396.53;5118300;28;19970;-59
2022/11/18 09:38:30;;;;;;;;;;;;;;;8.50;100.00;96393.63;5118212;28;19979;-60
2022/11/18 09:41:03;;;;;;;;;;;;;;;8.58;100.00;96404.44;5121538;28;19931;-59
2022/11/18 09:43:36;;;;;;;;;;;;;;;8.58;100.00;96398.31;5121669;28;19966;-61
2022/11/18 09:46:06;;;;;;;;;;;;;;;8.44;100.00;96405.41;5117989;28;19940;-59
2022/11/18 09:51:22;;;;;;;;;;;;;;;8.61;100.00;96403.06;5137401;28;19946;-59
2022/11/18 09:53:49;;;;;;;;;;;;;;;8.52;100.00;96405.56;5092423;28;19920;-61
2022/11/18 09:56:16;;;;;;;;;;;;;;;8.45;100.00;96413.09;5117950;28;20319;-60
2022/11/18 09:58:44;;;;;;;;;;;;;;;8.36;100.00;96409.50;5119107;28;19924;-60
2022/11/18 10:01:12;;;;;;;;;;;;;;;8.44;100.00;96416.06;5121399;28;19954;-59
2022/11/18 10:03:39;;;;;;;;;;;;;;;8.40;100.00;96415.84;5120330;28;19923;-61
2022/11/18 10:06:17;;;;;;;;;;;;;;;8.49;100.00;96413.31;5118222;28;19991;-59
2022/11/18 10:08:46;;;;;;;;;;;;;;;8.47;100.00;96426.13;5119827;28;19988;-60
2022/11/18 10:11:16;;;;;;;;;;;;;;;8.35;100.00;96418.56;5121953;28;19924;-59
2022/11/18 10:13:50;;;;;;;;;;;;;;;8.42;100.00;96434.94;5120485;28;19934;-62
2022/11/18 10:16:29;;;;;;;;;;;;;;;8.36;100.00;96435.28;5118082;28;19983;-59
2022/11/18 10:19:00;;;;;;;;;;;;;;;8.30;100.00;96444.41;5121061;28;19931;-59
2022/11/18 10:21:32;;;;;;;;;;;;;;;8.37;100.00;96427.03;5121067;28;19954;-61
2022/11/18 10:24:00;;;;;;;;;;;;;;;8.49;100.00;96435.41;5108990;28;19987;-60
2022/11/18 10:26:35;;;;;;;;;;;;;;;8.47;100.00;96432.25;5117727;28;19996;-60
2022/11/18 10:29:01;;;;;;;;;;;;;;;8.50;100.00;96439.66;5117677;28;19984;-61
2022/11/18 10:31:28;;;;;;;;;;;;;;;8.47;100.00;96434.91;5117614;28;20000;-61
2022/11/18 10:33:58;;;;;;;;;;;;;;;8.47;100.00;96442.88;5120945;28;19963;-60
2022/11/18 10:36:28;;;;;;;;;;;;;;;8.55;100.00;96442.25;5120989;28;19924;-60
2022/11/18 10:39:11;;;;;;;;;;;;;;;8.49;100.00;96446.06;5117682;28;19988;-59
2022/11/18 10:41:41;;;;;;;;;;;;;;;8.43;100.00;96441.88;5118083;28;19935;-60
2022/11/18 10:44:26;;;;;;;;;;;;;;;8.46;100.00;96449.28;5120916;28;19963;-60
2022/11/18 10:46:52;;;;;;;;;;;;;;;8.51;100.00;96451.09;5117864;28;19992;-61
2022/11/18 10:49:18;;;;;;;;;;;;;;;8.50;100.00;96458.28;5117202;28;19932;-60
2022/11/18 10:51:46;;;;;;;;;;;;;;;8.53;100.00;96452.41;5119195;28;19975;-60
2022/11/18 10:54:16;;;;;;;;;;;;;;;8.54;100.00;96448.63;5111088;28;19963;-61
2022/11/18 10:56:46;;;;;;;;;;;;;;;8.56;100.00;96451.03;5118745;28;20007;-60
2022/11/18 10:59:18;;;;;;;;;;;;;;;8.46;100.00;96446.63;5120772;28;19979;-60
2022/11/18 11:01:56;;;;;;;;;;;;;;;8.46;100.00;96446.63;5119124;28;19970;-60
2022/11/18 11:04:24;;;;;;;;;;;;;;;8.47;100.00;96447.41;5117488;28;19936;-60
2022/11/18 11:06:51;;;;;;;;;;;;;;;8.53;100.00;96455.06;5120101;28;19982;-61
2022/11/18 11:09:24;;;;;;;;;;;;;;;8.56;100.00;96451.03;5120836;28;19979;-59
2022/11/18 11:11:56;;;;;;;;;;;;;;;8.50;100.00;96450.31;5121864;28;19950;-61
2022/11/18 11:14:25;;;;;;;;;;;;;;;8.44;100.00;96456.75;5120802;28;20400;-60
2022/11/18 11:16:56;;;;;;;;;;;;;;;8.47;100.00;96452.75;5123666;28;19979;-59
2022/11/18 11:19:23;;;;;;;;;;;;;;;8.49;100.00;96462.00;5124134;28;19931;-61
2022/11/18 11:21:50;;;;;;;;;;;;;;;8.51;100.00;96453.75;5121823;28;19995;-60
2022/11/18 11:24:17;;;;;;;;;;;;;;;8.51;100.00;96456.41;5111971;28;19934;-59
2022/11/18 11:26:48;;;;;;;;;;;;;;;8.48;100.00;96465.75;5122283;28;19924;-60
2022/11/18 11:29:21;;;;;;;;;;;;;;;8.36;100.00;96456.56;5123975;28;20014;-60
2022/11/18 11:31:53;;;;;;;;;;;;;;;8.37;100.00;96458.16;5121593;28;19955;-60
2022/11/18 11:34:23;;;;;;;;;;;;;;;8.42;100.00;96461.56;5120274;28;19984;-61
2022/11/18 11:36:51;;;;;;;;;;;;;;;8.35;100.00;96455.00;5122568;28;19967;-60
2022/11/18 11:39:36;;;;;;;;;;;;;;;8.33;100.00;96455.28;5123731;28;19955;-60
2022/11/18 11:42:09;;;;;;;;;;;;;;;8.34;100.00;96458.72;5120027;28;19987;-60
2022/11/18 11:44:44;;;;;;;;;;;;;;;8.38;100.00;96460.56;5120028;28;20435;-59
2022/11/18 11:50:12;;;;;;;;;;;;;;;8.40;100.00;96465.56;5120011;28;19958;-60
2022/11/18 11:52:43;;;;;;;;;;;;;;;8.56;100.00;96465.13;5119630;28;19924;-60
2022/11/18 11:55:15;;;;;;;;;;;;;;;8.44;100.00;96470.06;5116748;28;19991;-61
2022/11/18 11:57:48;;;;;;;;;;;;;;;8.46;100.00;96467.91;5122126;28;20033;-60
2022/11/18 12:00:16;;;;;;;;;;;;;;;8.47;100.00;96471.34;5119551;28;19934;-60
2022/11/18 12:02:56;;;;;;;;;;;;;;;8.57;100.00;96477.34;5121277;28;19984;-60
2022/11/18 12:05:24;;;;;;;;;;;;;;;8.42;100.00;96485.50;5123001;28;19995;-59
2022/11/18 12:07:52;;;;;;;;;;;;;;;8.45;100.00;96476.94;5120502;28;19999;-60
2022/11/18 12:10:23;;;;;;;;;;;;;;;8.49;100.00;96477.97;5119446;28;19984;-60
2022/11/18 12:12:52;;;;;;;;;;;;;;;8.47;100.00;96476.69;5122069;28;20004;-59
2022/11/18 12:15:35;;;;;;;;;;;;;;;8.37;100.00;96474.91;5122846;28;19966;-60
2022/11/18 12:18:05;;;;;;;;;;;;;;;8.53;100.00;96492.31;5119612;28;19924;-60
2022/11/18 12:20:36;;;;;;;;;;;;;;;8.53;100.00;96488.84;5119425;28;20679;-60
2022/11/18 12:23:10;;;;;;;;;;;;;;;8.60;100.00;96491.97;5098144;28;19925;-60
2022/11/18 12:25:50;;;;;;;;;;;;;;;8.46;100.00;96480.41;5120304;28;19931;-61
2022/11/18 12:28:22;;;;;;;;;;;;;;;8.51;100.00;96486.44;5123153;28;19924;-59
2022/11/18 12:30:50;;;;;;;;;;;;;;;8.59;100.00;96488.50;5120707;28;19924;-60
2022/11/18 12:33:17;;;;;;;;;;;;;;;8.54;100.00;96485.13;5119227;28;19979;-60
2022/11/18 12:35:47;;;;;;;;;;;;;;;8.56;100.00;96486.41;5120907;28;19983;-60
2022/11/18 12:38:28;;;;;;;;;;;;;;;8.59;100.00;96483.19;5122871;28;19924;-61
2022/11/18 12:40:54;;;;;;;;;;;;;;;8.60;100.00;96494.63;5119441;28;19943;-60
2022/11/18 12:46:41;;;;;;;;;;;;;;;8.64;100.00;96485.78;5118216;28;19920;-61
2022/11/18 12:49:23;;;;;;;;;;;;;;;8.42;100.00;96493.47;5118770;28;19991;-60
2022/11/18 12:51:50;;;;;;;;;;;;;;;8.47;100.00;96500.63;5120325;28;19995;-60
2022/11/18 12:54:22;;;;;;;;;;;;;;;8.60;100.00;96500.72;5111744;28;19920;-60
2022/11/18 12:56:49;;;;;;;;;;;;;;;8.50;100.00;96506.16;5120948;28;19948;-60
2022/11/18 12:59:15;;;;;;;;;;;;;;;8.49;100.00;96504.56;5121982;28;19992;-61
2022/11/18 13:01:42;;;;;;;;;;;;;;;8.61;100.00;96502.31;5120790;28;19987;-60
2022/11/18 13:04:12;;;;;;;;;;;;;;;8.64;100.00;96506.25;5118628;28;19984;-62
2022/11/18 13:06:38;;;;;;;;;;;;;;;8.73;100.00;96499.22;5119195;28;19986;-60
2022/11/18 13:09:12;;;;;;;;;;;;;;;8.65;100.00;96503.31;5122112;28;19934;-59
2022/11/18 13:11:46;;;;;;;;;;;;;;;8.62;100.00;96495.91;5120929;28;19983;-60